sensor_id;sensor_type;location;lat;lon;timestamp;pressure;altitude;pressure_sealevel;temperature;humidity
49341;BME280;35209;51.050;13.678;2023-06-04T00:00:35;100418.53;;;10.60;56.13
49341;BME280;35209;51.050;13.678;2023-06-04T00:05:36;100414.75;;;10.72;56.85
49341;BME280;35209;51.050;13.678;2023-06-04T00:10:38;100413.09;;;10.68;56.73
49341;BME280;35209;51.050;13.678;2023-06-04T00:15:41;100415.47;;;10.43;57.50
49341;BME280;35209;51.050;13.678;2023-06-04T00:20:43;100408.91;;;10.25;57.66
49341;BME280;35209;51.050;13.678;2023-06-04T00:25:45;100401.59;;;10.01;58.93
49341;BME280;35209;51.050;13.678;2023-06-04T00:30:46;100395.56;;;9.97;59.61
49341;BME280;35209;51.050;13.678;2023-06-04T00:35:48;100407.19;;;9.85;60.12
49341;BME280;35209;51.050;13.678;2023-06-04T00:40:50;100394.31;;;9.75;60.46
49341;BME280;35209;51.050;13.678;2023-06-04T00:45:53;100388.59;;;9.57;61.65
49341;BME280;35209;51.050;13.678;2023-06-04T00:50:55;100391.50;;;9.84;61.10
49341;BME280;35209;51.050;13.678;2023-06-04T00:55:56;100387.31;;;9.75;61.46
49341;BME280;35209;51.050;13.678;2023-06-04T01:00:59;100391.53;;;9.81;61.45
49341;BME280;35209;51.050;13.678;2023-06-04T01:06:15;100383.88;;;9.72;61.75
49341;BME280;35209;51.050;13.678;2023-06-04T01:16:39;100381.28;;;9.31;63.33
49341;BME280;35209;51.050;13.678;2023-06-04T01:21:42;100379.59;;;9.27;63.42
49341;BME280;35209;51.050;13.678;2023-06-04T01:26:46;100383.75;;;8.96;64.67
49341;BME280;35209;51.050;13.678;2023-06-04T01:31:50;100380.78;;;9.13;64.68
49341;BME280;35209;51.050;13.678;2023-06-04T01:36:56;100383.94;;;9.30;63.88
49341;BME280;35209;51.050;13.678;2023-06-04T01:41:58;100376.31;;;9.18;64.39
49341;BME280;35209;51.050;13.678;2023-06-04T01:47:00;100384.88;;;8.82;65.96
49341;BME280;35209;51.050;13.678;2023-06-04T01:52:02;100389.97;;;8.90;65.86
49341;BME280;35209;51.050;13.678;2023-06-04T01:57:04;100385.00;;;8.75;66.45
49341;BME280;35209;51.050;13.678;2023-06-04T02:02:07;100378.78;;;8.82;66.60
49341;BME280;35209;51.050;13.678;2023-06-04T02:07:09;100387.03;;;8.61;67.39
49341;BME280;35209;51.050;13.678;2023-06-04T02:12:11;100377.91;;;8.80;66.92
49341;BME280;35209;51.050;13.678;2023-06-04T02:17:15;100379.97;;;8.64;67.51
49341;BME280;35209;51.050;13.678;2023-06-04T02:22:18;100391.53;;;8.52;67.87
49341;BME280;35209;51.050;13.678;2023-06-04T02:27:21;100391.88;;;8.31;69.28
49341;BME280;35209;51.050;13.678;2023-06-04T02:32:22;100396.97;;;8.40;68.98
49341;BME280;35209;51.050;13.678;2023-06-04T02:37:24;100396.13;;;8.40;68.97
49341;BME280;35209;51.050;13.678;2023-06-04T02:42:26;100398.66;;;8.46;68.76
49341;BME280;35209;51.050;13.678;2023-06-04T02:47:28;100393.59;;;8.32;69.00
49341;BME280;35209;51.050;13.678;2023-06-04T02:52:30;100403.25;;;8.30;69.20
49341;BME280;35209;51.050;13.678;2023-06-04T02:57:33;100396.59;;;8.11;69.62
49341;BME280;35209;51.050;13.678;2023-06-04T03:02:35;100403.22;;;7.76;71.88
49341;BME280;35209;51.050;13.678;2023-06-04T03:07:37;100404.75;;;7.89;71.57
49341;BME280;35209;51.050;13.678;2023-06-04T03:12:39;100397.53;;;8.06;70.49
49341;BME280;35209;51.050;13.678;2023-06-04T03:17:41;100402.91;;;7.96;70.96
49341;BME280;35209;51.050;13.678;2023-06-04T03:22:43;100404.22;;;7.66;72.50
49341;BME280;35209;51.050;13.678;2023-06-04T03:27:45;100404.03;;;7.79;72.57
49341;BME280;35209;51.050;13.678;2023-06-04T03:32:46;100411.63;;;7.98;71.89
49341;BME280;35209;51.050;13.678;2023-06-04T03:37:49;100413.75;;;8.27;70.20
49341;BME280;35209;51.050;13.678;2023-06-04T03:42:51;100413.97;;;8.13;70.85
49341;BME280;35209;51.050;13.678;2023-06-04T03:47:55;100411.69;;;7.93;72.56
49341;BME280;35209;51.050;13.678;2023-06-04T03:52:57;100410.00;;;7.89;72.55
49341;BME280;35209;51.050;13.678;2023-06-04T03:57:59;100423.78;;;8.00;71.99
49341;BME280;35209;51.050;13.678;2023-06-04T04:03:01;100420.19;;;8.07;71.72
49341;BME280;35209;51.050;13.678;2023-06-04T04:08:04;100427.06;;;8.15;70.21
49341;BME280;35209;51.050;13.678;2023-06-04T04:13:08;100435.19;;;8.53;69.08
49341;BME280;35209;51.050;13.678;2023-06-04T04:18:12;100436.59;;;8.73;68.32
49341;BME280;35209;51.050;13.678;2023-06-04T04:23:23;100433.88;;;8.79;67.14
49341;BME280;35209;51.050;13.678;2023-06-04T04:28:27;100436.59;;;8.73;67.58
49341;BME280;35209;51.050;13.678;2023-06-04T04:33:31;100437.00;;;8.98;65.90
49341;BME280;35209;51.050;13.678;2023-06-04T04:38:44;100436.69;;;9.15;65.32
49341;BME280;35209;51.050;13.678;2023-06-04T04:43:46;100430.53;;;9.16;65.54
49341;BME280;35209;51.050;13.678;2023-06-04T04:48:54;100435.50;;;9.31;64.67
49341;BME280;35209;51.050;13.678;2023-06-04T04:53:57;100432.88;;;9.29;64.38
49341;BME280;35209;51.050;13.678;2023-06-04T04:59:00;100444.72;;;9.50;63.85
49341;BME280;35209;51.050;13.678;2023-06-04T05:04:02;100437.28;;;9.71;62.94
49341;BME280;35209;51.050;13.678;2023-06-04T05:09:07;100443.31;;;10.13;61.27
49341;BME280;35209;51.050;13.678;2023-06-04T05:14:11;100435.00;;;9.94;62.28
49341;BME280;35209;51.050;13.678;2023-06-04T05:19:16;100435.47;;;10.11;61.89
49341;BME280;35209;51.050;13.678;2023-06-04T05:24:19;100447.16;;;11.05;59.00
49341;BME280;35209;51.050;13.678;2023-06-04T05:29:23;100444.78;;;11.58;56.46
49341;BME280;35209;51.050;13.678;2023-06-04T05:34:26;100447.41;;;12.18;54.32
49341;BME280;35209;51.050;13.678;2023-06-04T05:39:29;100458.00;;;12.69;52.78
49341;BME280;35209;51.050;13.678;2023-06-04T05:44:47;100451.22;;;13.62;49.12
49341;BME280;35209;51.050;13.678;2023-06-04T05:49:51;100457.66;;;13.55;49.61
49341;BME280;35209;51.050;13.678;2023-06-04T05:54:53;100452.38;;;14.00;48.59
49341;BME280;35209;51.050;13.678;2023-06-04T05:59:55;100459.66;;;14.39;47.19
49341;BME280;35209;51.050;13.678;2023-06-04T06:04:57;100459.97;;;14.31;47.74
49341;BME280;35209;51.050;13.678;2023-06-04T06:09:59;100467.56;;;15.03;46.56
49341;BME280;35209;51.050;13.678;2023-06-04T06:15:01;100457.50;;;15.11;45.02
49341;BME280;35209;51.050;13.678;2023-06-04T06:20:04;100458.44;;;15.10;46.21
49341;BME280;35209;51.050;13.678;2023-06-04T06:25:10;100463.25;;;15.81;45.82
49341;BME280;35209;51.050;13.678;2023-06-04T06:30:19;100467.31;;;15.88;44.89
49341;BME280;35209;51.050;13.678;2023-06-04T06:35:21;100475.41;;;16.04;43.15
49341;BME280;35209;51.050;13.678;2023-06-04T06:40:23;100477.63;;;17.03;42.18
49341;BME280;35209;51.050;13.678;2023-06-04T06:45:24;100477.84;;;16.81;41.71
49341;BME280;35209;51.050;13.678;2023-06-04T06:50:26;100480.84;;;17.43;41.10
49341;BME280;35209;51.050;13.678;2023-06-04T06:55:28;100490.84;;;17.88;40.06
49341;BME280;35209;51.050;13.678;2023-06-04T07:00:30;100497.50;;;17.46;39.41
49341;BME280;35209;51.050;13.678;2023-06-04T07:05:31;100486.66;;;18.00;38.55
49341;BME280;35209;51.050;13.678;2023-06-04T07:10:33;100485.53;;;18.35;37.42
49341;BME280;35209;51.050;13.678;2023-06-04T07:15:35;100480.63;;;18.59;35.59
49341;BME280;35209;51.050;13.678;2023-06-04T07:20:37;100484.66;;;19.41;35.06
49341;BME280;35209;51.050;13.678;2023-06-04T07:25:38;100479.91;;;19.60;35.21
49341;BME280;35209;51.050;13.678;2023-06-04T07:30:40;100488.41;;;19.81;35.38
49341;BME280;35209;51.050;13.678;2023-06-04T07:35:42;100484.66;;;19.41;35.06
49341;BME280;35209;51.050;13.678;2023-06-04T07:40:45;100487.34;;;19.70;33.70
49341;BME280;35209;51.050;13.678;2023-06-04T07:45:47;100485.50;;;20.40;34.26
49341;BME280;35209;51.050;13.678;2023-06-04T07:50:49;100481.19;;;20.79;33.50
49341;BME280;35209;51.050;13.678;2023-06-04T07:55:50;100486.91;;;21.00;32.57
49341;BME280;35209;51.050;13.678;2023-06-04T08:00:53;100480.47;;;20.50;34.01
49341;BME280;35209;51.050;13.678;2023-06-04T08:05:55;100479.25;;;20.27;34.25
49341;BME280;35209;51.050;13.678;2023-06-04T08:10:56;100481.78;;;20.15;34.76
49341;BME280;35209;51.050;13.678;2023-06-04T08:15:58;100472.41;;;20.64;32.92
49341;BME280;35209;51.050;13.678;2023-06-04T08:21:00;100470.97;;;21.11;33.20
49341;BME280;35209;51.050;13.678;2023-06-04T08:26:03;100463.19;;;21.21;32.51
49341;BME280;35209;51.050;13.678;2023-06-04T08:31:06;100470.16;;;21.61;32.58
49341;BME280;35209;51.050;13.678;2023-06-04T08:36:08;100469.72;;;22.54;30.81
49341;BME280;35209;51.050;13.678;2023-06-04T08:41:31;100468.03;;;22.16;31.34
49341;BME280;35209;51.050;13.678;2023-06-04T08:46:39;100464.81;;;22.48;29.96
49341;BME280;35209;51.050;13.678;2023-06-04T08:51:42;100462.69;;;22.64;30.30
49341;BME280;35209;51.050;13.678;2023-06-04T08:56:44;100459.38;;;22.60;32.03
49341;BME280;35209;51.050;13.678;2023-06-04T09:01:47;100463.28;;;23.38;28.73
49341;BME280;35209;51.050;13.678;2023-06-04T09:06:49;100461.16;;;23.08;29.26
49341;BME280;35209;51.050;13.678;2023-06-04T09:11:54;100459.81;;;23.13;28.50
49341;BME280;35209;51.050;13.678;2023-06-04T09:16:56;100459.03;;;23.47;27.87
49341;BME280;35209;51.050;13.678;2023-06-04T09:22:00;100460.97;;;23.45;27.98
49341;BME280;35209;51.050;13.678;2023-06-04T09:27:14;100455.25;;;23.49;27.32
49341;BME280;35209;51.050;13.678;2023-06-04T09:32:23;100455.47;;;24.13;27.02
49341;BME280;35209;51.050;13.678;2023-06-04T09:37:25;100465.22;;;24.14;27.13
49341;BME280;35209;51.050;13.678;2023-06-04T09:42:28;100459.44;;;24.74;27.47
49341;BME280;35209;51.050;13.678;2023-06-04T09:47:41;100454.03;;;25.27;25.29
49341;BME280;35209;51.050;13.678;2023-06-04T09:52:43;100458.53;;;25.05;25.84
49341;BME280;35209;51.050;13.678;2023-06-04T09:57:47;100456.75;;;24.74;24.72
49341;BME280;35209;51.050;13.678;2023-06-04T10:02:56;100446.25;;;24.38;23.60
49341;BME280;35209;51.050;13.678;2023-06-04T10:08:04;100442.28;;;24.22;24.96
49341;BME280;35209;51.050;13.678;2023-06-04T10:13:14;100449.41;;;25.59;24.36
49341;BME280;35209;51.050;13.678;2023-06-04T10:18:18;100445.75;;;25.39;23.94
49341;BME280;35209;51.050;13.678;2023-06-04T10:23:22;100439.31;;;25.31;23.66
49341;BME280;35209;51.050;13.678;2023-06-04T10:28:24;100438.16;;;25.85;23.88
49341;BME280;35209;51.050;13.678;2023-06-04T10:33:25;100442.84;;;25.52;24.80
49341;BME280;35209;51.050;13.678;2023-06-04T10:38:27;100452.75;;;25.52;24.37
49341;BME280;35209;51.050;13.678;2023-06-04T10:43:32;100455.03;;;25.26;23.19
49341;BME280;35209;51.050;13.678;2023-06-04T10:48:53;100444.88;;;25.60;23.32
49341;BME280;35209;51.050;13.678;2023-06-04T10:53:57;100449.69;;;26.56;24.53
49341;BME280;35209;51.050;13.678;2023-06-04T10:58:59;100442.22;;;26.10;23.28
49341;BME280;35209;51.050;13.678;2023-06-04T11:04:02;100432.00;;;26.13;24.04
49341;BME280;35209;51.050;13.678;2023-06-04T11:09:05;100432.78;;;26.64;24.63
49341;BME280;35209;51.050;13.678;2023-06-04T11:14:10;100432.34;;;26.98;22.07
49341;BME280;35209;51.050;13.678;2023-06-04T11:19:14;100434.91;;;26.51;22.60
49341;BME280;35209;51.050;13.678;2023-06-04T11:24:16;100432.34;;;26.39;24.76
49341;BME280;35209;51.050;13.678;2023-06-04T11:29:18;100425.91;;;26.11;23.34
49341;BME280;35209;51.050;13.678;2023-06-04T11:34:24;100429.75;;;25.38;23.87
49341;BME280;35209;51.050;13.678;2023-06-04T11:39:34;100420.41;;;25.42;23.75
49341;BME280;35209;51.050;13.678;2023-06-04T11:44:36;100418.56;;;25.73;25.31
49341;BME280;35209;51.050;13.678;2023-06-04T11:49:39;100426.13;;;26.49;24.16
49341;BME280;35209;51.050;13.678;2023-06-04T11:54:41;100417.56;;;27.11;25.64
49341;BME280;35209;51.050;13.678;2023-06-04T11:59:43;100418.81;;;26.10;23.93
49341;BME280;35209;51.050;13.678;2023-06-04T12:04:44;100415.44;;;26.18;23.57
49341;BME280;35209;51.050;13.678;2023-06-04T12:09:47;100415.34;;;26.58;23.51
49341;BME280;35209;51.050;13.678;2023-06-04T12:14:56;100414.22;;;25.51;23.17
49341;BME280;35209;51.050;13.678;2023-06-04T12:19:58;100410.34;;;25.75;24.94
49341;BME280;35209;51.050;13.678;2023-06-04T12:25:00;100411.09;;;25.77;25.16
49341;BME280;35209;51.050;13.678;2023-06-04T12:30:05;100409.09;;;25.79;24.49
49341;BME280;35209;51.050;13.678;2023-06-04T12:35:07;100415.13;;;25.31;24.50
49341;BME280;35209;51.050;13.678;2023-06-04T12:40:09;100405.78;;;25.75;24.25
49341;BME280;35209;51.050;13.678;2023-06-04T12:45:12;100404.84;;;25.15;23.98
49341;BME280;35209;51.050;13.678;2023-06-04T12:50:15;100407.28;;;25.28;24.76
49341;BME280;35209;51.050;13.678;2023-06-04T12:55:16;100408.47;;;25.65;24.06
49341;BME280;35209;51.050;13.678;2023-06-04T13:00:18;100401.19;;;25.77;23.86
49341;BME280;35209;51.050;13.678;2023-06-04T13:05:20;100401.34;;;25.95;24.91
49341;BME280;35209;51.050;13.678;2023-06-04T13:10:22;100394.66;;;25.49;24.24
49341;BME280;35209;51.050;13.678;2023-06-04T13:15:23;100388.75;;;25.96;25.11
49341;BME280;35209;51.050;13.678;2023-06-04T13:20:25;100388.31;;;25.90;23.93
49341;BME280;35209;51.050;13.678;2023-06-04T13:25:27;100396.03;;;25.34;25.69
49341;BME280;35209;51.050;13.678;2023-06-04T13:30:30;100380.38;;;25.99;23.84
49341;BME280;35209;51.050;13.678;2023-06-04T13:35:32;100384.75;;;25.90;23.77
49341;BME280;35209;51.050;13.678;2023-06-04T13:40:35;100376.19;;;25.75;24.58
49341;BME280;35209;51.050;13.678;2023-06-04T13:45:37;100379.25;;;25.61;23.81
49341;BME280;35209;51.050;13.678;2023-06-04T13:50:38;100369.47;;;25.20;23.83
49341;BME280;35209;51.050;13.678;2023-06-04T13:55:40;100374.50;;;24.92;24.07
49341;BME280;35209;51.050;13.678;2023-06-04T14:00:42;100371.44;;;25.17;24.46
49341;BME280;35209;51.050;13.678;2023-06-04T14:05:44;100375.44;;;25.02;23.75
49341;BME280;35209;51.050;13.678;2023-06-04T14:10:46;100372.56;;;24.94;23.75
49341;BME280;35209;51.050;13.678;2023-06-04T14:15:47;100368.63;;;24.98;24.58
49341;BME280;35209;51.050;13.678;2023-06-04T14:20:49;100369.97;;;24.62;23.51
49341;BME280;35209;51.050;13.678;2023-06-04T14:25:51;100371.97;;;24.90;24.05
49341;BME280;35209;51.050;13.678;2023-06-04T14:30:53;100363.75;;;25.44;22.69
49341;BME280;35209;51.050;13.678;2023-06-04T14:35:54;100359.56;;;24.99;23.65
49341;BME280;35209;51.050;13.678;2023-06-04T14:40:56;100356.28;;;25.57;22.59
49341;BME280;35209;51.050;13.678;2023-06-04T14:45:58;100355.72;;;25.23;22.69
49341;BME280;35209;51.050;13.678;2023-06-04T14:51:00;100345.88;;;25.33;21.57
49341;BME280;35209;51.050;13.678;2023-06-04T14:56:02;100348.69;;;25.31;22.73
49341;BME280;35209;51.050;13.678;2023-06-04T15:01:03;100333.59;;;25.90;21.31
49341;BME280;35209;51.050;13.678;2023-06-04T15:06:05;100340.25;;;26.05;21.35
49341;BME280;35209;51.050;13.678;2023-06-04T15:11:20;100332.72;;;25.80;20.12
49341;BME280;35209;51.050;13.678;2023-06-04T15:16:23;100340.28;;;26.44;20.56
49341;BME280;35209;51.050;13.678;2023-06-04T15:21:24;100340.44;;;26.52;20.25
49341;BME280;35209;51.050;13.678;2023-06-04T15:26:26;100339.59;;;26.99;20.11
49341;BME280;35209;51.050;13.678;2023-06-04T15:31:30;100339.56;;;26.61;19.86
49341;BME280;35209;51.050;13.678;2023-06-04T15:36:32;100336.56;;;25.77;20.60
49341;BME280;35209;51.050;13.678;2023-06-04T15:41:33;100337.81;;;25.83;21.24
49341;BME280;35209;51.050;13.678;2023-06-04T15:46:35;100339.28;;;25.56;21.21
49341;BME280;35209;51.050;13.678;2023-06-04T15:51:37;100340.25;;;25.96;21.21
49341;BME280;35209;51.050;13.678;2023-06-04T15:56:39;100320.81;;;25.82;22.13
49341;BME280;35209;51.050;13.678;2023-06-04T16:01:41;100321.97;;;25.09;22.56
49341;BME280;35209;51.050;13.678;2023-06-04T16:06:44;100326.00;;;25.64;21.66
49341;BME280;35209;51.050;13.678;2023-06-04T16:11:46;100328.81;;;25.63;22.80
49341;BME280;35209;51.050;13.678;2023-06-04T16:16:47;100324.56;;;25.51;21.88
49341;BME280;35209;51.050;13.678;2023-06-04T16:21:50;100326.50;;;25.08;22.60
49341;BME280;35209;51.050;13.678;2023-06-04T16:26:51;100319.28;;;24.57;23.73
49341;BME280;35209;51.050;13.678;2023-06-04T16:31:53;100322.69;;;24.59;23.35
49341;BME280;35209;51.050;13.678;2023-06-04T16:36:55;100322.34;;;24.00;23.65
49341;BME280;35209;51.050;13.678;2023-06-04T16:41:57;100316.56;;;23.72;24.14
49341;BME280;35209;51.050;13.678;2023-06-04T16:47:03;100317.72;;;23.90;23.96
49341;BME280;35209;51.050;13.678;2023-06-04T16:52:05;100303.28;;;23.48;23.84
49341;BME280;35209;51.050;13.678;2023-06-04T16:57:09;100304.66;;;23.31;24.36
49341;BME280;35209;51.050;13.678;2023-06-04T17:02:11;100304.91;;;23.17;24.53
49341;BME280;35209;51.050;13.678;2023-06-04T17:07:12;100305.16;;;23.03;25.19
49341;BME280;35209;51.050;13.678;2023-06-04T17:12:14;100302.44;;;22.80;25.56
49341;BME280;35209;51.050;13.678;2023-06-04T17:17:16;100290.63;;;22.83;26.15
49341;BME280;35209;51.050;13.678;2023-06-04T17:22:18;100300.47;;;22.60;26.64
49341;BME280;35209;51.050;13.678;2023-06-04T17:27:20;100295.41;;;22.33;25.93
49341;BME280;35209;51.050;13.678;2023-06-04T17:32:21;100301.31;;;22.49;26.23
49341;BME280;35209;51.050;13.678;2023-06-04T17:37:23;100305.53;;;22.40;26.46
49341;BME280;35209;51.050;13.678;2023-06-04T17:42:26;100305.16;;;22.10;26.61
49341;BME280;35209;51.050;13.678;2023-06-04T17:47:27;100303.88;;;22.15;26.76
49341;BME280;35209;51.050;13.678;2023-06-04T17:52:29;100301.41;;;21.88;29.15
49341;BME280;35209;51.050;13.678;2023-06-04T17:57:31;100302.44;;;21.75;27.94
49341;BME280;35209;51.050;13.678;2023-06-04T18:02:33;100310.19;;;21.66;27.79
49341;BME280;35209;51.050;13.678;2023-06-04T18:07:35;100306.09;;;21.74;27.55
49341;BME280;35209;51.050;13.678;2023-06-04T18:12:37;100307.03;;;21.49;28.35
49341;BME280;35209;51.050;13.678;2023-06-04T18:17:39;100309.75;;;21.60;27.90
49341;BME280;35209;51.050;13.678;2023-06-04T18:22:41;100315.72;;;21.39;28.83
49341;BME280;35209;51.050;13.678;2023-06-04T18:27:43;100320.22;;;21.26;29.21
49341;BME280;35209;51.050;13.678;2023-06-04T18:32:45;100319.84;;;20.94;29.86
49341;BME280;35209;51.050;13.678;2023-06-04T18:37:49;100314.91;;;21.01;29.68
49341;BME280;35209;51.050;13.678;2023-06-04T18:42:51;100322.50;;;20.69;30.29
49341;BME280;35209;51.050;13.678;2023-06-04T18:47:53;100326.38;;;20.37;31.28
49341;BME280;35209;51.050;13.678;2023-06-04T18:52:54;100320.88;;;20.13;32.21
49341;BME280;35209;51.050;13.678;2023-06-04T18:57:57;100335.06;;;20.01;32.74
49341;BME280;35209;51.050;13.678;2023-06-04T19:02:58;100334.81;;;20.04;34.96
49341;BME280;35209;51.050;13.678;2023-06-04T19:08:00;100334.88;;;19.90;34.47
49341;BME280;35209;51.050;13.678;2023-06-04T19:13:02;100336.47;;;19.65;34.80
49341;BME280;35209;51.050;13.678;2023-06-04T19:18:04;100339.19;;;19.23;35.52
49341;BME280;35209;51.050;13.678;2023-06-04T19:23:06;100340.63;;;19.00;36.67
49341;BME280;35209;51.050;13.678;2023-06-04T19:28:08;100349.66;;;18.83;37.41
49341;BME280;35209;51.050;13.678;2023-06-04T19:33:13;100346.41;;;18.48;38.48
49341;BME280;35209;51.050;13.678;2023-06-04T19:38:15;100354.03;;;18.24;39.86
49341;BME280;35209;51.050;13.678;2023-06-04T19:43:17;100362.66;;;18.43;38.42
49341;BME280;35209;51.050;13.678;2023-06-04T19:48:19;100364.28;;;18.15;38.71
49341;BME280;35209;51.050;13.678;2023-06-04T19:53:21;100358.44;;;18.25;38.77
49341;BME280;35209;51.050;13.678;2023-06-04T19:58:23;100369.44;;;18.03;39.75
49341;BME280;35209;51.050;13.678;2023-06-04T20:03:27;100379.06;;;17.89;40.65
49341;BME280;35209;51.050;13.678;2023-06-04T20:08:32;100376.28;;;17.59;41.44
49341;BME280;35209;51.050;13.678;2023-06-04T20:13:35;100388.94;;;17.23;42.60
49341;BME280;35209;51.050;13.678;2023-06-04T20:18:37;100392.94;;;17.14;42.48
49341;BME280;35209;51.050;13.678;2023-06-04T20:23:38;100396.34;;;16.83;44.08
49341;BME280;35209;51.050;13.678;2023-06-04T20:28:40;100399.25;;;16.59;43.76
49341;BME280;35209;51.050;13.678;2023-06-04T20:33:42;100402.38;;;16.68;43.87
49341;BME280;35209;51.050;13.678;2023-06-04T20:38:44;100402.63;;;16.46;45.19
49341;BME280;35209;51.050;13.678;2023-06-04T20:43:51;100413.94;;;16.49;45.51
49341;BME280;35209;51.050;13.678;2023-06-04T20:48:53;100409.88;;;16.25;46.20
49341;BME280;35209;51.050;13.678;2023-06-04T20:53:55;100415.28;;;16.04;45.76
49341;BME280;35209;51.050;13.678;2023-06-04T20:58:56;100418.34;;;16.14;46.02
49341;BME280;35209;51.050;13.678;2023-06-04T21:03:59;100417.53;;;15.95;46.49
49341;BME280;35209;51.050;13.678;2023-06-04T21:09:05;100424.75;;;15.72;47.14
49341;BME280;35209;51.050;13.678;2023-06-04T21:14:06;100423.00;;;15.52;47.65
49341;BME280;35209;51.050;13.678;2023-06-04T21:19:08;100431.00;;;15.32;48.30
49341;BME280;35209;51.050;13.678;2023-06-04T21:24:10;100433.06;;;15.25;48.48
49341;BME280;35209;51.050;13.678;2023-06-04T21:29:12;100434.25;;;15.18;48.61
49341;BME280;35209;51.050;13.678;2023-06-04T21:34:14;100427.94;;;15.02;49.39
49341;BME280;35209;51.050;13.678;2023-06-04T21:39:15;100430.44;;;14.84;49.92
49341;BME280;35209;51.050;13.678;2023-06-04T21:44:17;100446.50;;;14.80;50.18
49341;BME280;35209;51.050;13.678;2023-06-04T21:49:19;100435.47;;;14.91;49.65
49341;BME280;35209;51.050;13.678;2023-06-04T21:54:21;100436.88;;;14.79;50.08
49341;BME280;35209;51.050;13.678;2023-06-04T21:59:23;100442.47;;;14.71;50.26
49341;BME280;35209;51.050;13.678;2023-06-04T22:04:25;100440.25;;;14.60;50.55
49341;BME280;35209;51.050;13.678;2023-06-04T22:09:27;100440.66;;;14.51;50.81
49341;BME280;35209;51.050;13.678;2023-06-04T22:14:28;100441.94;;;14.41;50.90
49341;BME280;35209;51.050;13.678;2023-06-04T22:19:30;100441.75;;;14.46;50.85
49341;BME280;35209;51.050;13.678;2023-06-04T22:24:32;100437.69;;;14.15;51.50
49341;BME280;35209;51.050;13.678;2023-06-04T22:29:34;100432.41;;;14.15;51.52
49341;BME280;35209;51.050;13.678;2023-06-04T22:34:36;100435.28;;;13.87;52.49
49341;BME280;35209;51.050;13.678;2023-06-04T22:39:37;100432.88;;;13.81;52.77
49341;BME280;35209;51.050;13.678;2023-06-04T22:44:39;100434.16;;;13.71;52.64
49341;BME280;35209;51.050;13.678;2023-06-04T22:49:42;100432.59;;;13.65;52.63
49341;BME280;35209;51.050;13.678;2023-06-04T22:54:44;100435.19;;;13.43;53.07
49341;BME280;35209;51.050;13.678;2023-06-04T22:59:46;100441.91;;;13.52;52.97
49341;BME280;35209;51.050;13.678;2023-06-04T23:04:48;100435.94;;;13.22;53.93
49341;BME280;35209;51.050;13.678;2023-06-04T23:09:49;100433.91;;;13.30;53.68
49341;BME280;35209;51.050;13.678;2023-06-04T23:14:53;100429.47;;;13.05;55.17
49341;BME280;35209;51.050;13.678;2023-06-04T23:19:55;100429.28;;;13.11;54.53
49341;BME280;35209;51.050;13.678;2023-06-04T23:24:56;100434.00;;;12.77;56.54
49341;BME280;35209;51.050;13.678;2023-06-04T23:29:58;100429.75;;;12.73;56.48
49341;BME280;35209;51.050;13.678;2023-06-04T23:35:00;100437.78;;;12.95;56.37
49341;BME280;35209;51.050;13.678;2023-06-04T23:40:06;100434.38;;;12.91;56.84
49341;BME280;35209;51.050;13.678;2023-06-04T23:45:08;100435.47;;;12.85;57.14
49341;BME280;35209;51.050;13.678;2023-06-04T23:50:10;100431.44;;;12.75;57.26
49341;BME280;35209;51.050;13.678;2023-06-04T23:55:12;100424.56;;;12.45;57.99
